createdAt,value
2023-09-06T00:04:53.146Z,15.80
2023-09-06T00:09:57.218Z,15.78
2023-09-06T00:15:01.329Z,15.76
2023-09-06T00:20:05.505Z,15.76
2023-09-06T00:25:09.638Z,15.72
2023-09-06T00:30:13.778Z,15.62
2023-09-06T00:35:17.945Z,15.56
2023-09-06T00:40:22.117Z,15.54
2023-09-06T00:45:26.298Z,15.47
2023-09-06T00:50:30.444Z,15.52
2023-09-06T00:55:34.618Z,15.56
2023-09-06T01:00:38.830Z,15.52
2023-09-06T01:05:42.935Z,15.46
2023-09-06T01:10:47.099Z,15.42
2023-09-06T01:15:51.350Z,15.38
2023-09-06T01:20:55.380Z,15.33
2023-09-06T01:25:59.528Z,15.27
2023-09-06T01:31:03.858Z,15.23
2023-09-06T01:36:07.877Z,15.14
2023-09-06T01:41:12.069Z,15.01
2023-09-06T01:46:16.251Z,14.98
2023-09-06T01:51:20.339Z,14.93
2023-09-06T01:56:24.509Z,14.96
2023-09-06T02:01:28.799Z,14.88
2023-09-06T02:06:30.950Z,14.79
2023-09-06T02:11:35.181Z,14.78
2023-09-06T02:16:39.346Z,14.67
2023-09-06T02:21:43.581Z,14.60
2023-09-06T02:26:47.597Z,14.59
2023-09-06T02:31:51.859Z,14.54
2023-09-06T02:36:55.919Z,14.50
2023-09-06T02:42:00.124Z,14.48
2023-09-06T02:47:04.342Z,14.46
2023-09-06T02:52:08.423Z,14.43
2023-09-06T02:57:12.559Z,14.38
2023-09-06T03:02:16.804Z,14.40
2023-09-06T03:07:20.869Z,14.42
2023-09-06T03:12:25.255Z,14.40
2023-09-06T03:17:29.169Z,14.45
2023-09-06T03:22:33.406Z,14.46
2023-09-06T03:27:37.522Z,14.39
2023-09-06T03:32:41.703Z,14.28
2023-09-06T03:37:45.854Z,14.20
2023-09-06T03:42:50.007Z,14.11
2023-09-06T03:47:54.250Z,14.07
2023-09-06T03:52:58.367Z,14.04
2023-09-06T03:58:02.472Z,14.06
2023-09-06T04:03:06.710Z,14.07
2023-09-06T04:08:10.908Z,13.99
2023-09-06T04:13:14.977Z,14.05
2023-09-06T04:18:19.119Z,14.07
2023-09-06T04:23:23.261Z,14.05
2023-09-06T04:28:27.795Z,14.04
2023-09-06T04:33:31.609Z,13.98
2023-09-06T04:38:35.750Z,13.94
2023-09-06T04:43:39.878Z,13.92
2023-09-06T04:48:44.044Z,13.87
2023-09-06T04:53:48.228Z,13.89
2023-09-06T04:58:52.428Z,13.89
2023-09-06T05:03:56.703Z,13.82
2023-09-06T05:09:00.750Z,13.76
2023-09-06T05:14:04.870Z,13.79
2023-09-06T05:19:09.066Z,13.78
2023-09-06T05:24:13.177Z,13.79
2023-09-06T05:29:17.393Z,13.84
2023-09-06T05:34:21.521Z,13.88
2023-09-06T05:39:25.753Z,13.99
2023-09-06T05:44:29.843Z,14.01
2023-09-06T05:49:34.033Z,14.05
2023-09-06T05:54:38.143Z,14.17
2023-09-06T05:59:42.396Z,14.27
2023-09-06T06:04:46.563Z,14.38
2023-09-06T06:09:50.638Z,14.63
2023-09-06T06:14:54.797Z,14.75
2023-09-06T06:19:59.045Z,14.88
2023-09-06T06:25:03.122Z,15.06
2023-09-06T06:30:07.288Z,15.28
2023-09-06T06:35:11.422Z,15.44
2023-09-06T06:40:15.625Z,15.65
2023-09-06T06:45:19.749Z,15.90
2023-09-06T06:50:23.943Z,16.15
2023-09-06T06:55:28.115Z,16.39
2023-09-06T07:00:33.239Z,16.62
2023-09-06T07:05:36.500Z,16.86
2023-09-06T07:10:40.622Z,17.12
2023-09-06T07:15:44.781Z,17.39
2023-09-06T07:20:48.913Z,17.75
2023-09-06T07:25:53.110Z,18.07
2023-09-06T07:30:57.219Z,18.36
2023-09-06T07:35:59.449Z,18.61
2023-09-06T07:41:03.638Z,18.93
2023-09-06T07:46:07.828Z,19.17
2023-09-06T07:51:11.960Z,19.37
2023-09-06T07:56:16.153Z,19.71
2023-09-06T08:01:20.360Z,19.91
2023-09-06T08:06:22.596Z,20.18
2023-09-06T08:11:26.721Z,20.49
2023-09-06T08:16:30.984Z,20.73
2023-09-06T08:21:35.022Z,20.97
2023-09-06T08:26:39.215Z,21.25
2023-09-06T08:31:43.398Z,21.60
2023-09-06T08:36:47.591Z,21.85
2023-09-06T08:41:51.731Z,21.95
2023-09-06T08:46:55.876Z,22.30
2023-09-06T08:51:59.955Z,22.48
2023-09-06T08:57:04.142Z,22.65
2023-09-06T09:02:08.304Z,22.80
2023-09-06T09:07:12.452Z,23.03
2023-09-06T09:12:16.592Z,23.18
2023-09-06T09:17:20.779Z,23.48
2023-09-06T09:22:24.903Z,23.67
2023-09-06T09:27:29.087Z,23.87
2023-09-06T09:32:33.314Z,24.10
2023-09-06T09:37:37.869Z,24.22
2023-09-06T09:42:41.604Z,24.29
2023-09-06T09:47:53.722Z,24.59
2023-09-06T09:52:49.871Z,24.76
2023-09-06T09:57:54.016Z,24.88
2023-09-06T10:02:59.498Z,25.11
2023-09-06T10:08:02.391Z,25.32
2023-09-06T10:13:06.521Z,25.37
2023-09-06T10:18:10.782Z,25.26
2023-09-06T10:23:14.837Z,25.50
2023-09-06T10:28:18.990Z,25.75
2023-09-06T10:33:23.166Z,25.77
2023-09-06T10:38:27.629Z,26.07
2023-09-06T10:43:32.671Z,26.22
2023-09-06T10:48:35.658Z,26.43
2023-09-06T10:53:39.773Z,26.60
2023-09-06T10:58:43.935Z,26.62
2023-09-06T11:03:48.179Z,26.88
2023-09-06T11:08:52.232Z,26.94
2023-09-06T11:13:56.415Z,27.06
2023-09-06T11:19:00.568Z,27.03
2023-09-06T11:24:04.773Z,27.10
2023-09-06T11:29:08.919Z,27.47
2023-09-06T11:34:13.118Z,27.68
2023-09-06T11:44:21.383Z,27.70
2023-09-06T11:49:25.578Z,27.99
2023-09-06T11:54:29.709Z,28.02
2023-09-06T11:59:33.854Z,28.14
2023-09-06T12:04:38.018Z,28.38
2023-09-06T12:09:42.153Z,28.42
2023-09-06T12:14:46.405Z,28.31
2023-09-06T12:19:50.496Z,28.39
2023-09-06T12:24:54.671Z,28.55
2023-09-06T12:29:58.842Z,28.71
2023-09-06T12:35:02.935Z,28.32
2023-09-06T12:40:07.101Z,28.65
2023-09-06T12:45:11.329Z,28.62
2023-09-06T12:50:15.420Z,28.75
2023-09-06T12:55:19.585Z,28.90
2023-09-06T13:00:23.758Z,29.05
2023-09-06T13:05:28.141Z,28.88
2023-09-06T13:10:32.110Z,29.01
2023-09-06T13:15:36.279Z,29.18
2023-09-06T13:20:40.413Z,29.27
2023-09-06T13:25:44.604Z,29.07
2023-09-06T13:30:48.778Z,29.24
2023-09-06T13:35:50.995Z,29.21
2023-09-06T13:40:55.113Z,29.58
2023-09-06T13:45:59.284Z,29.51
2023-09-06T13:51:03.485Z,29.47
2023-09-06T13:56:07.629Z,29.52
2023-09-06T14:01:11.786Z,29.73
2023-09-06T14:06:15.948Z,29.89
2023-09-06T14:11:20.128Z,29.92
2023-09-06T14:16:24.299Z,29.90
2023-09-06T14:21:28.403Z,29.90
2023-09-06T14:26:32.626Z,29.93
2023-09-06T14:31:36.757Z,29.95
2023-09-06T14:36:40.898Z,29.99
2023-09-06T14:41:45.077Z,30.06
2023-09-06T14:46:49.559Z,30.08
2023-09-06T14:51:53.373Z,30.09
2023-09-06T14:56:57.490Z,29.96
2023-09-06T15:02:01.692Z,29.90
2023-09-06T15:07:05.832Z,29.88
2023-09-06T15:12:10.100Z,29.78
2023-09-06T15:17:14.163Z,29.75
2023-09-06T15:22:29.256Z,29.69
2023-09-06T15:27:22.538Z,29.59
2023-09-06T15:32:26.641Z,29.46
2023-09-06T15:37:30.828Z,29.42
2023-09-06T15:42:34.981Z,29.33
2023-09-06T15:47:41.831Z,29.16
2023-09-06T15:52:43.306Z,29.15
2023-09-06T15:57:47.446Z,29.26
2023-09-06T16:02:51.859Z,30.44
2023-09-06T16:07:55.728Z,32.01
2023-09-06T16:12:59.926Z,32.28
2023-09-06T16:18:04.132Z,33.14
2023-09-06T16:23:08.201Z,33.94
2023-09-06T16:28:12.406Z,34.20
2023-09-06T16:33:16.691Z,34.16
2023-09-06T16:38:20.762Z,33.11
2023-09-06T16:43:24.879Z,33.61
2023-09-06T16:48:29.399Z,32.20
2023-09-06T16:53:33.184Z,30.57
2023-09-06T16:58:37.361Z,29.61
2023-09-06T17:03:41.523Z,28.93
2023-09-06T17:08:45.669Z,28.49
2023-09-06T17:13:49.843Z,28.07
2023-09-06T17:18:54.059Z,27.63
2023-09-06T17:24:03.942Z,27.43
2023-09-06T17:29:02.341Z,27.09
2023-09-06T17:34:06.462Z,26.72
2023-09-06T17:39:10.621Z,26.50
2023-09-06T17:44:14.773Z,26.13
2023-09-06T17:49:19.172Z,25.60
2023-09-06T17:54:23.107Z,25.05
2023-09-06T17:59:27.238Z,24.55
2023-09-06T18:04:31.876Z,24.17
2023-09-06T18:09:35.583Z,23.89
2023-09-06T18:14:39.757Z,23.42
2023-09-06T18:19:43.909Z,23.18
2023-09-06T18:24:48.078Z,22.96
2023-09-06T18:29:52.242Z,22.76
2023-09-06T18:34:56.440Z,22.55
2023-09-06T18:40:00.544Z,22.39
2023-09-06T18:45:04.707Z,22.23
2023-09-06T18:50:08.906Z,22.01
2023-09-06T18:55:13.023Z,21.81
2023-09-06T19:00:17.194Z,21.58
2023-09-06T19:05:19.439Z,21.39
2023-09-06T19:10:23.649Z,21.18
2023-09-06T19:15:27.750Z,21.08
2023-09-06T19:20:31.944Z,20.98
2023-09-06T19:25:38.143Z,20.91
2023-09-06T19:30:40.547Z,20.89
2023-09-06T19:35:44.469Z,20.79
2023-09-06T19:40:48.610Z,20.71
2023-09-06T19:45:52.726Z,20.55
2023-09-06T19:50:56.873Z,20.35
2023-09-06T19:56:01.085Z,20.16
2023-09-06T20:01:05.340Z,20.03
2023-09-06T20:06:09.342Z,19.87
2023-09-06T20:11:13.637Z,19.84
2023-09-06T20:16:17.741Z,19.65
2023-09-06T20:21:21.829Z,19.51
2023-09-06T20:26:25.985Z,19.39
2023-09-06T20:31:30.163Z,19.19
2023-09-06T20:36:34.305Z,19.04
2023-09-06T20:41:38.540Z,18.92
2023-09-06T20:46:42.712Z,18.81
2023-09-06T20:51:46.801Z,18.71
2023-09-06T20:56:50.945Z,18.61
2023-09-06T21:01:55.175Z,18.43
2023-09-06T21:06:59.265Z,18.32
2023-09-06T21:12:03.432Z,18.28
2023-09-06T21:17:07.613Z,18.21
2023-09-06T21:22:11.751Z,18.17
2023-09-06T21:27:15.901Z,18.08
2023-09-06T21:32:20.085Z,17.99
2023-09-06T21:37:24.279Z,17.93
2023-09-06T21:42:28.384Z,17.88
2023-09-06T21:47:32.637Z,17.78
2023-09-06T21:52:36.707Z,17.68
2023-09-06T21:57:43.468Z,17.52
2023-09-06T22:02:45.179Z,17.46
2023-09-06T22:07:49.153Z,17.32
2023-09-06T22:12:53.384Z,17.26
2023-09-06T22:17:57.517Z,17.17
2023-09-06T22:23:01.677Z,17.06
2023-09-06T22:28:05.879Z,16.99
2023-09-06T22:33:09.988Z,16.93
2023-09-06T22:38:14.139Z,16.77
2023-09-06T22:43:18.357Z,16.72
2023-09-06T22:48:22.460Z,16.59
2023-09-06T22:53:26.636Z,16.51
2023-09-06T22:58:31.028Z,16.43
2023-09-06T23:03:35.055Z,16.32
2023-09-06T23:08:39.287Z,16.29
2023-09-06T23:13:43.296Z,16.23
2023-09-06T23:18:47.403Z,16.15
2023-09-06T23:23:51.557Z,16.08
2023-09-06T23:28:55.708Z,16.01
2023-09-06T23:33:59.970Z,15.99
2023-09-06T23:39:04.032Z,15.92
2023-09-06T23:44:08.217Z,15.90
2023-09-06T23:49:12.388Z,15.87
2023-09-06T23:54:16.497Z,15.83
2023-09-06T23:59:20.731Z,15.82
